Time;durP1;ratioP1;P1;durP2;ratioP2;P2;SDS_P1;SDS_P2;PMS_P1;PMS_P2;Temp;Humidity;BMP_temperature;BMP_pressure;BME280_temperature;BME280_humidity;BME280_pressure;Samples;Min_cycle;Max_cycle;Signal;HPM_P1;HPM_P2
2023/09/10 00:00:36;;;;;;;;;;;;;;;;;;5100175;28;19928;-81
2023/09/10 00:03:05;;;;;;;;;;;;;;;;;;5094661;28;20244;-81
2023/09/10 00:05:34;;;;;;;;;;;;;;;;;;5091636;28;19917;-81
2023/09/10 00:08:10;;;;;;;;;;;;;;;;;;5076156;28;19909;-82
2023/09/10 00:10:37;;;;;;;;;;;;;;;;;;5097769;28;20064;-81
2023/09/10 00:13:06;;;;;;;;;;;;;;;;;;5104291;28;19923;-80
2023/09/10 00:15:34;;;;;;;;;;;;;;;;;;5087587;28;19908;-81
2023/09/10 00:18:00;;;;;;;;;;;;;;;;;;5083271;28;19912;-81
2023/09/10 00:20:27;;;;;;;;;;;;;;;;;;5068319;28;19924;-81
2023/09/10 00:22:56;;;;;;;;;;;;;;;;;;5078491;28;20339;-81
2023/09/10 00:25:24;;;;;;;;;;;;;;;;;;5082693;28;19912;-80
2023/09/10 00:27:59;;;;;;;;;;;;;;;;;;5096458;28;19912;-81
2023/09/10 00:33:17;;;;;;;;;;;;;;;;;;5085824;28;19923;-81
2023/09/10 00:35:45;;;;;;;;;;;;;;;;;;5088720;28;19912;-81
2023/09/10 00:38:26;;;;;;;;;;;;;;;;;;5104533;28;20011;-81
2023/09/10 00:40:55;;;;;;;;;;;;;;;;;;5095837;28;20473;-80
2023/09/10 00:43:21;;;;;;;;;;;;;;;;;;5084548;28;20074;-81
2023/09/10 00:45:50;;;;;;;;;;;;;;;;;;5071827;28;20013;-80
2023/09/10 00:48:24;;;;;;;;;;;;;;;;;;5063454;28;19988;-80
2023/09/10 00:50:50;;;;;;;;;;;;;;;;;;5074330;28;20378;-82
2023/09/10 00:53:16;;;;;;;;;;;;;;;;;;5094055;28;19916;-81
2023/09/10 00:55:57;;;;;;;;;;;;;;;;;;5072731;28;19908;-81
2023/09/10 00:58:31;;;;;;;;;;;;;;;;;;5086247;28;19908;-81
2023/09/10 01:00:59;;;;;;;;;;;;;;;;;;5087520;28;19916;-81
2023/09/10 01:03:37;;;;;;;;;;;;;;;;;;5078624;28;19932;-81
2023/09/10 01:06:05;;;;;;;;;;;;;;;;;;5084049;28;19920;-81
2023/09/10 01:08:39;;;;;;;;;;;;;;;;;;5081510;28;19927;-82
2023/09/10 01:11:08;;;;;;;;;;;;;;;;;;5068531;28;19999;-81
2023/09/10 01:13:43;;;;;;;;;;;;;;;;;;5073921;28;20343;-81
2023/09/10 01:16:11;;;;;;;;;;;;;;;;;;5078787;28;19917;-81
2023/09/10 01:18:40;;;;;;;;;;;;;;;;;;5096588;28;19927;-81
2023/09/10 01:21:06;;;;;;;;;;;;;;;;;;5097950;28;19916;-81
2023/09/10 01:23:32;;;;;;;;;;;;;;;;;;5096358;28;19934;-81
2023/09/10 01:25:58;;;;;;;;;;;;;;;;;;5098153;28;19920;-82
2023/09/10 01:28:24;;;;;;;;;;;;;;;;;;5100316;28;19908;-81
2023/09/10 01:30:52;;;;;;;;;;;;;;;;;;5091399;28;19919;-81
2023/09/10 01:33:18;;;;;;;;;;;;;;;;;;5080108;28;20252;-81
2023/09/10 01:35:47;;;;;;;;;;;;;;;;;;5075375;28;19927;-81
2023/09/10 01:38:13;;;;;;;;;;;;;;;;;;5084921;28;20201;-82
2023/09/10 01:40:46;;;;;;;;;;;;;;;;;;5086134;28;19912;-82
2023/09/10 01:43:15;;;;;;;;;;;;;;;;;;5101100;28;19920;-81
2023/09/10 01:45:41;;;;;;;;;;;;;;;;;;5103330;28;19924;-82
2023/09/10 01:48:07;;;;;;;;;;;;;;;;;;5113977;28;19912;-82
2023/09/10 01:50:33;;;;;;;;;;;;;;;;;;5083062;28;19912;-81
2023/09/10 01:52:59;;;;;;;;;;;;;;;;;;5083369;28;20253;-81
2023/09/10 01:55:27;;;;;;;;;;;;;;;;;;5092181;28;19920;-81
2023/09/10 01:57:59;;;;;;;;;;;;;;;;;;5098816;28;19912;-81
2023/09/10 02:00:27;;;;;;;;;;;;;;;;;;5093935;28;19912;-81
2023/09/10 02:02:55;;;;;;;;;;;;;;;;;;5110173;28;19908;-81
2023/09/10 02:05:30;;;;;;;;;;;;;;;;;;5108141;28;19908;-81
2023/09/10 02:07:56;;;;;;;;;;;;;;;;;;5085673;28;19995;-81
2023/09/10 02:10:22;;;;;;;;;;;;;;;;;;5090360;28;19984;-81
2023/09/10 02:12:53;;;;;;;;;;;;;;;;;;5081591;28;19917;-81
2023/09/10 02:15:28;;;;;;;;;;;;;;;;;;5084687;28;20262;-81
2023/09/10 02:17:54;;;;;;;;;;;;;;;;;;5091561;28;19918;-81
2023/09/10 02:20:19;;;;;;;;;;;;;;;;;;5077009;28;20328;-81
2023/09/10 02:22:48;;;;;;;;;;;;;;;;;;5084812;28;20365;-81
2023/09/10 02:25:20;;;;;;;;;;;;;;;;;;5098969;28;19912;-81
2023/09/10 02:27:46;;;;;;;;;;;;;;;;;;5105411;28;20220;-81
2023/09/10 02:33:03;;;;;;;;;;;;;;;;;;5093501;28;19912;-81
2023/09/10 02:35:29;;;;;;;;;;;;;;;;;;5090426;28;19911;-81
2023/09/10 02:37:55;;;;;;;;;;;;;;;;;;5082680;28;20229;-81
2023/09/10 02:40:24;;;;;;;;;;;;;;;;;;5071845;28;19956;-81
2023/09/10 02:45:37;;;;;;;;;;;;;;;;;;5072001;28;20343;-81
2023/09/10 02:48:03;;;;;;;;;;;;;;;;;;5075769;28;19908;-81
2023/09/10 02:50:36;;;;;;;;;;;;;;;;;;5102500;28;19907;-81
2023/09/10 02:53:10;;;;;;;;;;;;;;;;;;5093881;28;19923;-81
2023/09/10 02:55:36;;;;;;;;;;;;;;;;;;5082696;28;20352;-81
2023/09/10 02:58:02;;;;;;;;;;;;;;;;;;5072595;28;19915;-81
2023/09/10 03:00:30;;;;;;;;;;;;;;;;;;5072264;28;19908;-81
2023/09/10 03:02:59;;;;;;;;;;;;;;;;;;5083712;28;19923;-81
2023/09/10 03:05:29;;;;;;;;;;;;;;;;;;5086982;28;19955;-82
2023/09/10 03:07:55;;;;;;;;;;;;;;;;;;5093446;28;19958;-82
2023/09/10 03:10:23;;;;;;;;;;;;;;;;;;5093935;28;19912;-80
2023/09/10 03:13:01;;;;;;;;;;;;;;;;;;5062661;28;19923;-81
2023/09/10 03:15:35;;;;;;;;;;;;;;;;;;5075704;28;19912;-81
2023/09/10 03:18:01;;;;;;;;;;;;;;;;;;5075324;28;19920;-81
2023/09/10 03:20:37;;;;;;;;;;;;;;;;;;5079640;28;20356;-82
2023/09/10 03:55:32;;;;;;;;;;;;;;;;;;;;;
2023/09/10 04:33:19;;;;;;;;;;;;;;;;;;;;;
2023/09/10 04:53:38;;;;;;;;;;;22.60;73.10;;;;;;5818759;23;19960;-80
2023/09/10 04:56:04;;;;;;;;;;;22.50;73.00;;;;;;4999102;28;19965;-82
2023/09/10 04:58:29;;;;;;;;;;;22.60;73.10;;;;;;5008194;28;20340;-83
2023/09/10 05:00:55;;;;;;;;;;;22.60;73.10;;;;;;4990565;28;19929;-82
2023/09/10 05:03:21;;;;;;;;;;;22.60;73.00;;;;;;5013858;28;20473;-82
2023/09/10 05:05:46;;;;;;;;;;;22.60;72.90;;;;;;4994912;28;20408;-82
2023/09/10 05:08:12;;;;;;;;;;;22.60;73.00;;;;;;5011478;28;19957;-82
2023/09/10 05:10:37;;;;;;;;;;;22.50;73.00;;;;;;4996429;28;19987;-82
2023/09/10 05:13:03;;;;;;;;;;;22.50;73.20;;;;;;5022559;28;19921;-82
2023/09/10 05:15:29;;;;;;;;;;;22.50;73.30;;;;;;5027524;28;20245;-83
2023/09/10 05:17:54;;;;;;;;;;;22.50;73.40;;;;;;4988706;28;19914;-82
2023/09/10 05:20:20;;;;;;;;;;;22.50;73.60;;;;;;5023871;28;19917;-82
2023/09/10 05:22:45;;;;;;;;;;;22.50;73.80;;;;;;5003119;28;19949;-82
2023/09/10 05:25:11;;;;;;;;;;;22.50;73.90;;;;;;5009051;28;19921;-82
2023/09/10 05:27:37;;;;;;;;;;;22.50;74.00;;;;;;4988133;28;19925;-82
2023/09/10 05:30:03;;;;;;;;;;;22.50;74.10;;;;;;4987910;28;20255;-82
2023/09/10 05:32:29;;;;;;;;;;;22.50;74.30;;;;;;4997582;28;19918;-82
2023/09/10 05:34:55;;;;;;;;;;;22.50;74.40;;;;;;5016267;28;19914;-82
2023/09/10 05:37:21;;;;;;;;;;;22.40;74.40;;;;;;4996956;28;20016;-83
2023/09/10 05:39:46;;;;;;;;;;;22.50;74.60;;;;;;5030584;28;20766;-81
2023/09/10 05:42:11;;;;;;;;;;;22.50;74.80;;;;;;5003525;28;19914;-82
2023/09/10 05:44:37;;;;;;;;;;;22.50;75.10;;;;;;5031720;28;19919;-82
2023/09/10 05:47:03;;;;;;;;;;;22.40;75.20;;;;;;4994568;28;20373;-82
2023/09/10 05:49:28;;;;;;;;;;;22.50;75.40;;;;;;4999576;28;19909;-82
2023/09/10 05:51:53;;;;;;;;;;;22.50;75.70;;;;;;5017815;28;20347;-82
2023/09/10 05:54:19;;;;;;;;;;;22.50;75.80;;;;;;5012460;28;20013;-82
2023/09/10 05:56:44;;;;;;;;;;;22.50;75.80;;;;;;4993936;28;19920;-82
2023/09/10 05:59:10;;;;;;;;;;;22.50;75.90;;;;;;4997932;28;20728;-81
2023/09/10 06:01:35;;;;;;;;;;;22.50;75.90;;;;;;5004484;28;20044;-82
2023/09/10 06:04:01;;;;;;;;;;;22.60;76.20;;;;;;5006635;28;19914;-82
2023/09/10 06:06:27;;;;;;;;;;;22.50;76.40;;;;;;5008732;28;19917;-82
2023/09/10 06:08:53;;;;;;;;;;;22.50;76.60;;;;;;5004670;28;19917;-82
2023/09/10 06:11:18;;;;;;;;;;;22.50;76.70;;;;;;5002851;28;19917;-82
2023/09/10 06:13:44;;;;;;;;;;;22.60;76.90;;;;;;5006712;28;19925;-82
2023/09/10 06:16:09;;;;;;;;;;;22.60;76.90;;;;;;5001461;28;19933;-82
2023/09/10 06:18:35;;;;;;;;;;;22.60;77.00;;;;;;5005976;28;19944;-82
2023/09/10 06:21:01;;;;;;;;;;;;;;;;;;4976835;28;20020;-82
2023/09/10 06:23:26;;;;;;;;;;;22.70;76.70;;;;;;5003992;28;19918;-82
2023/09/10 06:25:52;;;;;;;;;;;22.70;77.50;;;;;;5005793;28;19914;-82
2023/09/10 06:28:18;;;;;;;;;;;22.70;77.60;;;;;;5004147;28;19917;-82
2023/09/10 06:30:43;;;;;;;;;;;22.70;77.60;;;;;;4988527;28;20136;-82
2023/09/10 06:33:09;;;;;;;;;;;22.70;77.80;;;;;;5005857;28;20726;-82
2023/09/10 06:35:34;;;;;;;;;;;22.70;78.00;;;;;;5018094;28;19914;-82
2023/09/10 06:38:00;;;;;;;;;;;22.70;78.30;;;;;;5004781;28;19917;-82
2023/09/10 06:40:25;;;;;;;;;;;22.70;78.40;;;;;;5023488;28;19917;-81
2023/09/10 06:42:51;;;;;;;;;;;22.70;78.50;;;;;;5003447;28;19918;-82
2023/09/10 06:45:16;;;;;;;;;;;;;;;;;;5023968;28;20612;-81
2023/09/10 06:47:42;;;;;;;;;;;;;;;;;;5007511;28;20216;-81
2023/09/10 06:50:08;;;;;;;;;;;;;;;;;;4996474;28;19914;-81
2023/09/10 06:52:34;;;;;;;;;;;;;;;;;;4995410;28;19957;-82
2023/09/10 06:55:00;;;;;;;;;;;;;;;;;;5007568;28;19972;-85
2023/09/10 06:57:27;;;;;;;;;;;22.90;78.00;;;;;;4994275;28;20584;-87
2023/09/10 06:59:53;;;;;;;;;;;;;;;;;;4999857;28;19995;-83
2023/09/10 07:02:19;;;;;;;;;;;;;;;;;;4999505;28;20234;-82
2023/09/10 07:04:47;;;;;;;;;;;;;;;;;;5002898;28;19956;-82
2023/09/10 07:07:13;;;;;;;;;;;;;;;;;;5006019;28;19948;-81
2023/09/10 07:09:39;;;;;;;;;;;;;;;;;;5001692;28;19914;-82
2023/09/10 07:12:05;;;;;;;;;;;;;;;;;;5002213;28;20429;-80
2023/09/10 07:14:30;;;;;;;;;;;;;;;;;;5005363;28;19913;-82
2023/09/10 07:16:56;;;;;;;;;;;;;;;;;;5004408;28;19918;-81
2023/09/10 07:19:22;;;;;;;;;;;;;;;;;;5005420;28;19997;-80
2023/09/10 07:21:48;;;;;;;;;;;;;;;;;;5006844;28;20276;-81
2023/09/10 07:24:14;;;;;;;;;;;;;;;;;;5005395;28;19921;-80
2023/09/10 07:26:40;;;;;;;;;;;;;;;;;;5002275;28;20350;-83
2023/09/10 07:29:06;;;;;;;;;;;;;;;;;;5002344;28;20055;-80
2023/09/10 07:31:32;;;;;;;;;;;;;;;;;;5006943;28;19909;-81
2023/09/10 07:33:58;;;;;;;;;;;;;;;;;;5004561;28;19918;-83
2023/09/10 07:36:24;;;;;;;;;;;;;;;;;;5004612;28;20254;-81
2023/09/10 07:38:49;;;;;;;;;;;;;;;;;;5002072;28;19914;-81
2023/09/10 07:41:15;;;;;;;;;;;;;;;;;;4997538;28;19932;-81
2023/09/10 07:43:41;;;;;;;;;;;;;;;;;;5002964;28;20483;-81
2023/09/10 07:46:07;;;;;;;;;;;;;;;;;;5000122;28;19922;-83
2023/09/10 07:48:33;;;;;;;;;;;;;;;;;;5001369;28;20579;-86
2023/09/10 07:50:59;;;;;;;;;;;;;;;;;;5003873;28;19945;-83
2023/09/10 07:53:25;;;;;;;;;;;;;;;;;;4991303;28;20036;-84
2023/09/10 07:55:51;;;;;;;;;;;;;;;;;;4998781;28;19918;-84
2023/09/10 07:58:17;;;;;;;;;;;;;;;;;;5000376;28;20116;-84
2023/09/10 08:00:43;;;;;;;;;;;;;;;;;;5002532;28;20019;-83
2023/09/10 08:03:09;;;;;;;;;;;;;;;;;;5004927;28;19910;-84
2023/09/10 08:05:34;;;;;;;;;;;;;;;;;;5006522;28;20396;-84
2023/09/10 08:08:03;;;;;;;;;;;;;;;;;;5002109;28;19910;-84
2023/09/10 08:10:28;;;;;;;;;;;;;;;;;;5004408;28;19964;-84
2023/09/10 08:12:54;;;;;;;;;;;;;;;;;;5005733;28;19964;-84
2023/09/10 08:15:20;;;;;;;;;;;;;;;;;;4985381;28;19933;-85
2023/09/10 08:17:46;;;;;;;;;;;;;;;;;;5007489;28;19914;-84
2023/09/10 08:20:12;;;;;;;;;;;;;;;;;;5006672;28;19913;-84
2023/09/10 08:22:38;;;;;;;;;;;;;;;;;;5006627;28;19910;-86
2023/09/10 08:25:04;;;;;;;;;;;;;;;;;;4998906;28;19917;-84
2023/09/10 08:27:30;;;;;;;;;;;;;;;;;;5005998;28;19916;-82
2023/09/10 08:29:56;;;;;;;;;;;;;;;;;;4999533;28;19956;-83
2023/09/10 08:32:22;;;;;;;;;;;;;;;;;;5001876;28;20262;-86
2023/09/10 08:34:47;;;;;;;;;;;;;;;;;;5004197;28;19913;-86
2023/09/10 08:37:13;;;;;;;;;;;;;;;;;;5009325;28;19910;-86
2023/09/10 08:39:39;;;;;;;;;;;;;;;;;;5007013;28;19917;-86
2023/09/10 08:42:05;;;;;;;;;;;;;;;;;;5003747;28;19910;-86
2023/09/10 08:44:31;;;;;;;;;;;;;;;;;;5015439;28;19973;-86
2023/09/10 08:46:59;;;;;;;;;;;;;;;;;;5037294;28;20390;-86
2023/09/10 08:49:25;;;;;;;;;;;;;;;;;;5029564;28;20154;-86
2023/09/10 08:51:51;;;;;;;;;;;;;;;;;;5031562;28;19901;-86
2023/09/10 08:54:17;;;;;;;;;;;;;;;;;;5020263;28;19933;-86
2023/09/10 08:56:43;;;;;;;;;;;;;;;;;;5025139;28;20237;-85
2023/09/10 08:59:09;;;;;;;;;;;;;;;;;;5021036;28;19929;-85
2023/09/10 09:01:35;;;;;;;;;;;;;;;;;;5025137;28;19910;-85
2023/09/10 09:04:01;;;;;;;;;;;;;;;;;;5031227;28;19913;-86
2023/09/10 09:06:26;;;;;;;;;;;;;;;;;;5029865;28;19897;-85
2023/09/10 09:08:54;;;;;;;;;;;;;;;;;;5028697;28;19936;-86
2023/09/10 09:11:19;;;;;;;;;;;;;;;;;;4993550;28;19918;-86
2023/09/10 09:13:46;;;;;;;;;;;;;;;;;;4992840;28;19921;-86
2023/09/10 09:16:12;;;;;;;;;;;;;;;;;;5010107;28;19917;-87
2023/09/10 09:18:39;;;;;;;;;;;;;;;;;;5015383;28;19909;-86
2023/09/10 09:21:05;;;;;;;;;;;;;;;;;;5023124;28;19909;-85
2023/09/10 09:23:31;;;;;;;;;;;;;;;;;;5031145;28;19981;-84
2023/09/10 09:25:57;;;;;;;;;;;;;;;;;;5012588;28;19914;-86
2023/09/10 09:28:23;;;;;;;;;;;;;;;;;;5022098;28;19968;-85
2023/09/10 09:30:49;;;;;;;;;;;;;;;;;;5022193;28;19914;-85
2023/09/10 09:33:15;;;;;;;;;;;;;;;;;;5002960;28;19968;-86
2023/09/10 09:35:41;;;;;;;;;;;;;;;;;;5011710;28;19917;-85
2023/09/10 09:38:07;;;;;;;;;;;;;;;;;;5020392;28;19914;-85
2023/09/10 09:40:35;;;;;;;;;;;;;;;;;;5013889;28;20107;-86
2023/09/10 09:43:01;;;;;;;;;;;;;;;;;;5002925;28;19959;-87
2023/09/10 09:45:27;;;;;;;;;;;;;;;;;;5007063;28;20369;-86
2023/09/10 09:47:53;;;;;;;;;;;;;;;;;;5015343;28;19920;-86
2023/09/10 09:50:19;;;;;;;;;;;;;;;;;;5016679;28;19936;-86
2023/09/10 09:52:44;;;;;;;;;;;;;;;;;;5010900;28;20342;-86
2023/09/10 09:55:10;;;;;;;;;;;;;;;;;;5001714;28;20015;-86
2023/09/10 09:57:36;;;;;;;;;;;;;;;;;;5007000;28;19921;-86
2023/09/10 10:00:02;;;;;;;;;;;;;;;;;;5007249;28;19918;-85
2023/09/10 10:02:28;;;;;;;;;;;;;;;;;;5004891;28;19916;-86
2023/09/10 10:04:54;;;;;;;;;;;;;;;;;;5007253;28;19913;-86
2023/09/10 10:07:22;;;;;;;;;;;;;;;;;;5011505;28;19913;-86
2023/09/10 10:09:48;;;;;;;;;;;;;;;;;;5010539;28;19937;-85
2023/09/10 10:12:14;;;;;;;;;;;;;;;;;;5018581;28;19996;-86
2023/09/10 10:14:39;;;;;;;;;;;;;;;;;;5004311;28;19936;-86
2023/09/10 10:17:06;;;;;;;;;;;;;;;;;;5001082;28;19914;-85
2023/09/10 10:19:32;;;;;;;;;;;;;;;;;;4998887;28;19909;-86
2023/09/10 10:21:58;;;;;;;;;;;;;;;;;;5010618;28;20464;-86
2023/09/10 10:24:24;;;;;;;;;;;;;;;;;;5018651;28;20289;-85
2023/09/10 10:26:51;;;;;;;;;;;;;;;;;;5012111;28;19921;-85
2023/09/10 10:29:17;;;;;;;;;;;;;;;;;;5010822;28;19918;-86
2023/09/10 10:31:43;;;;;;;;;;;;;;;;;;4997724;28;20377;-86
2023/09/10 10:34:09;;;;;;;;;;;;;;;;;;5010981;28;20004;-86
2023/09/10 10:36:35;;;;;;;;;;;;;;;;;;5005426;28;19983;-86
2023/09/10 10:39:01;;;;;;;;;;;;;;;;;;5006836;28;19918;-85
2023/09/10 10:41:27;;;;;;;;;;;;;;;;;;4998805;28;19952;-86
2023/09/10 10:43:52;;;;;;;;;;;;;;;;;;5001689;28;19910;-86
2023/09/10 10:46:18;;;;;;;;;;;;;;;;;;4998625;28;20349;-85
2023/09/10 10:48:44;;;;;;;;;;;;;;;;;;5000595;28;19919;-87
2023/09/10 10:51:10;;;;;;;;;;;;;;;;;;5009293;28;19916;-86
2023/09/10 10:53:36;;;;;;;;;;;;;;;;;;4994483;28;20333;-86
2023/09/10 10:56:03;;;;;;;;;;;;;;;;;;5005563;28;19964;-85
2023/09/10 10:58:29;;;;;;;;;;;;;;;;;;5002336;28;20257;-85
2023/09/10 11:00:55;;;;;;;;;;;;;;;;;;4999526;28;19917;-85
2023/09/10 11:03:21;;;;;;;;;;;;;;;;;;4993823;28;19914;-85
2023/09/10 11:05:47;;;;;;;;;;;;;;;;;;5005849;28;20424;-85
2023/09/10 11:08:14;;;;;;;;;;;;;;;;;;5007756;28;19917;-86
2023/09/10 11:10:40;;;;;;;;;;;;;;;;;;5007504;28;19913;-86
2023/09/10 11:13:06;;;;;;;;;;;;;;;;;;5006593;28;20400;-86
2023/09/10 11:15:32;;;;;;;;;;;;;;;;;;4995293;28;20005;-86
2023/09/10 11:17:58;;;;;;;;;;;;;;;;;;5013488;28;20036;-86
2023/09/10 11:20:24;;;;;;;;;;;;;;;;;;5006186;28;19909;-86
2023/09/10 11:22:50;;;;;;;;;;;;;;;;;;4996710;28;19968;-88
2023/09/10 11:25:15;;;;;;;;;;;;;;;;;;5004792;28;19985;-85
2023/09/10 11:27:41;;;;;;;;;;;;;;;;;;5014653;28;20321;-86
2023/09/10 11:30:07;;;;;;;;;;;;;;;;;;4992030;28;19914;-85
2023/09/10 11:32:33;;;;;;;;;;;;;;;;;;5006355;28;20269;-85
2023/09/10 11:34:59;;;;;;;;;;;;;;;;;;5003117;28;20342;-85
2023/09/10 11:37:25;;;;;;;;;;;;;;;;;;5000315;28;19909;-86
2023/09/10 11:39:51;;;;;;;;;;;;;;;;;;4999446;28;19961;-87
2023/09/10 11:42:17;;;;;;;;;;;;;;;;;;5007129;28;19924;-86
2023/09/10 11:44:43;;;;;;;;;;;;;;;;;;4997992;28;19910;-86
2023/09/10 11:47:09;;;;;;;;;;;;;;;;;;5005903;28;19967;-86
2023/09/10 11:49:35;;;;;;;;;;;;;;;;;;5010198;28;20261;-86
2023/09/10 11:52:01;;;;;;;;;;;;;;;;;;5006910;28;19925;-86
2023/09/10 11:54:26;;;;;;;;;;;;;;;;;;4996615;28;19975;-86
2023/09/10 11:56:53;;;;;;;;;;;;;;;;;;4996848;28;19924;-86
2023/09/10 11:59:18;;;;;;;;;;;;;;;;;;5004319;28;19971;-84
2023/09/10 12:01:44;;;;;;;;;;;;;;;;;;5000184;28;20020;-85
2023/09/10 12:04:11;;;;;;;;;;;;;;;;;;5003289;28;19914;-86
2023/09/10 12:06:37;;;;;;;;;;;;;;;;;;4995184;28;19918;-83
2023/09/10 12:09:03;;;;;;;;;;;;;;;;;;5003056;28;19943;-82
2023/09/10 12:11:29;;;;;;;;;;;;;;;;;;5004399;28;19916;-82
2023/09/10 12:13:55;;;;;;;;;;;;;;;;;;4997944;28;19928;-84
2023/09/10 12:16:21;;;;;;;;;;;;;;;;;;4996617;28;19917;-82
2023/09/10 12:18:47;;;;;;;;;;;;;;;;;;4998964;28;20239;-82
2023/09/10 12:21:15;;;;;;;;;;;;;;;;;;4997006;28;20000;-82
2023/09/10 12:23:41;;;;;;;;;;;;;;;;;;5005776;28;19941;-82
2023/09/10 12:26:07;;;;;;;;;;;;;;;;;;5009676;28;19913;-82
2023/09/10 12:28:33;;;;;;;;;;;;;;;;;;4988828;28;20023;-81
2023/09/10 12:30:59;;;;;;;;;;;;;;;;;;4995847;28;20343;-81
2023/09/10 12:33:25;;;;;;;;;;;;;;;;;;4992745;28;19922;-82
2023/09/10 12:35:51;;;;;;;;;;;;;;;;;;5000304;28;19994;-84
2023/09/10 12:38:18;;;;;;;;;;;;;;;;;;5001851;28;20012;-85
2023/09/10 12:40:44;;;;;;;;;;;;;;;;;;4999228;28;19971;-84
2023/09/10 12:43:10;;;;;;;;;;;;;;;;;;5009177;28;19929;-81
2023/09/10 12:45:36;;;;;;;;;;;;;;;;;;5007331;28;19967;-84
2023/09/10 12:48:01;;;;;;;;;;;;;;;;;;5003552;28;19921;-82
2023/09/10 12:50:27;;;;;;;;;;;;;;;;;;4995581;28;19914;-82
2023/09/10 12:52:56;;;;;;;;;;;;;;;;;;4999590;28;19914;-86
2023/09/10 12:55:22;;;;;;;;;;;;;;;;;;5003477;28;19921;-83
2023/09/10 12:57:48;;;;;;;;;;;;;;;;;;4999122;28;20329;-81
2023/09/10 13:00:14;;;;;;;;;;;;;;;;;;4998345;28;20008;-81
2023/09/10 13:02:42;;;;;;;;;;;;;;;;;;4988929;28;19964;-84
2023/09/10 13:05:08;;;;;;;;;;;;;;;;;;5020735;28;19913;-84
2023/09/10 13:07:33;;;;;;;;;;;;;;;;;;5002771;28;20421;-82
2023/09/10 13:09:59;;;;;;;;;;;;;;;;;;5009821;28;19913;-82
2023/09/10 13:12:25;;;;;;;;;;;;;;;;;;5000616;28;19957;-84
2023/09/10 13:14:51;;;;;;;;;;;;;;;;;;5019645;28;19929;-83
2023/09/10 13:17:18;;;;;;;;;;;;;;;;;;5033005;28;19917;-83
2023/09/10 13:19:43;;;;;;;;;;;;;;;;;;5012204;28;20370;-82
2023/09/10 13:22:09;;;;;;;;;;;;;;;;;;5010819;28;19972;-84
2023/09/10 13:24:35;;;;;;;;;;;;;;;;;;5003897;28;19920;-83
2023/09/10 13:27:01;;;;;;;;;;;;;;;;;;5007386;28;19949;-84
2023/09/10 13:29:27;;;;;;;;;;;;;;;;;;5005686;28;19928;-83
2023/09/10 13:31:53;;;;;;;;;;;;;;;;;;5005198;28;19914;-86
2023/09/10 13:34:19;;;;;;;;;;;;;;;;;;5004052;28;19973;-83
2023/09/10 13:36:45;;;;;;;;;;;;;;;;;;5000233;28;20507;-81
2023/09/10 13:39:12;;;;;;;;;;;;;;;;;;5008260;28;20427;-82
2023/09/10 13:41:38;;;;;;;;;;;;;;;;;;5003338;28;20230;-83
2023/09/10 13:44:04;;;;;;;;;;;;;;;;;;5001707;28;19920;-85
2023/09/10 13:46:31;;;;;;;;;;;;;;;;;;5005351;28;19953;-81
2023/09/10 13:48:57;;;;;;;;;;;;;;;;;;5010122;28;19952;-83
2023/09/10 13:51:23;;;;;;;;;;;;;;;;;;5034244;28;19920;-83
2023/09/10 13:53:49;;;;;;;;;;;;;;;;;;5016937;28;19944;-84
2023/09/10 13:56:15;;;;;;;;;;;;;;;;;;5020523;28;19909;-84
2023/09/10 13:58:41;;;;;;;;;;;;;;;;;;5014695;28;19932;-84
2023/09/10 14:01:07;;;;;;;;;;;;;;;;;;4998920;28;19914;-85
2023/09/10 14:03:33;;;;;;;;;;;;;;;;;;5014116;28;19917;-83
2023/09/10 14:05:59;;;;;;;;;;;;;;;;;;4999173;28;20280;-85
2023/09/10 14:08:25;;;;;;;;;;;;;;;;;;4996355;28;19952;-84
2023/09/10 14:10:51;;;;;;;;;;;;;;;;;;4999929;28;19914;-83
2023/09/10 14:13:17;;;;;;;;;;;;;;;;;;5001140;28;20004;-84
2023/09/10 14:15:43;;;;;;;;;;;;;;;;;;5021018;28;19921;-83
2023/09/10 14:18:09;;;;;;;;;;;;;;;;;;5006304;28;19973;-83
2023/09/10 14:20:35;;;;;;;;;;;;;;;;;;5007721;28;20047;-80
2023/09/10 14:23:02;;;;;;;;;;;;;;;;;;5005706;28;20107;-81
2023/09/10 14:25:29;;;;;;;;;;;;;;;;;;4999827;28;19944;-81
2023/09/10 14:27:55;;;;;;;;;;;;;;;;;;5004338;28;19913;-81
2023/09/10 14:30:20;;;;;;;;;;;;;;;;;;5000194;28;20262;-80
2023/09/10 14:32:46;;;;;;;;;;;;;;;;;;5002495;28;20229;-80
2023/09/10 14:35:12;;;;;;;;;;;;;;;;;;5005459;28;19918;-80
2023/09/10 14:37:38;;;;;;;;;;;;;;;;;;4999998;28;20254;-80
2023/09/10 14:40:04;;;;;;;;;;;;;;;;;;4997027;28;20099;-81
2023/09/10 14:42:30;;;;;;;;;;;;;;;;;;4997789;28;19927;-83
2023/09/10 14:44:56;;;;;;;;;;;;;;;;;;5004235;28;19928;-79
2023/09/10 14:47:22;;;;;;;;;;;;;;;;;;4994761;28;19925;-81
2023/09/10 14:49:48;;;;;;;;;;;;;;;;;;5003826;28;19917;-80
2023/09/10 14:52:14;;;;;;;;;;;;;;;;;;5002364;28;20362;-84
2023/09/10 14:54:40;;;;;;;;;;;;;;;;;;5005907;28;19975;-81
2023/09/10 14:57:06;;;;;;;;;;;;;;;;;;4998299;28;19962;-79
2023/09/10 14:59:31;;;;;;;;;;;;;;;;;;5008695;28;20396;-80
2023/09/10 15:01:57;;;;;;;;;;;;;;;;;;5009328;28;20681;-83
2023/09/10 15:04:23;;;;;;;;;;;;;;;;;;5006995;28;19964;-82
2023/09/10 15:06:51;;;;;;;;;;;;;;;;;;4994217;28;20057;-80
2023/09/10 15:09:17;;;;;;;;;;;;;;;;;;5011195;28;19920;-83
2023/09/10 15:11:43;;;;;;;;;;;;;;;;;;5009876;28;19985;-81
2023/09/10 15:14:09;;;;;;;;;;;;;;;;;;4996553;28;19940;-83
2023/09/10 15:16:38;;;;;;;;;;;;;;;;;;4999497;28;19963;-81
2023/09/10 15:19:04;;;;;;;;;;;;;;;;;;5008375;28;19918;-82
2023/09/10 15:21:30;;;;;;;;;;;;;;;;;;5014413;28;19910;-83
2023/09/10 15:23:56;;;;;;;;;;;;;;;;;;5001391;28;19921;-85
2023/09/10 15:26:22;;;;;;;;;;;;;;;;;;4998110;28;19914;-84
2023/09/10 15:28:48;;;;;;;;;;;;;;;;;;5001641;28;19913;-82
2023/09/10 15:31:14;;;;;;;;;;;;;;;;;;4997372;28;19959;-78
2023/09/10 15:33:40;;;;;;;;;;;;;;;;;;4994932;28;19917;-80
2023/09/10 15:36:06;;;;;;;;;;;;;;;;;;4998273;28;19924;-82
2023/09/10 15:38:32;;;;;;;;;;;;;;;;;;5004150;28;19913;-79
2023/09/10 15:40:58;;;;;;;;;;;;;;;;;;5001236;28;20258;-79
2023/09/10 15:43:24;;;;;;;;;;;;;;;;;;5008505;28;19921;-78
2023/09/10 15:45:50;;;;;;;;;;;;;;;;;;5001319;28;20489;-79
2023/09/10 15:48:16;;;;;;;;;;;;;;;;;;5007302;28;20012;-79
2023/09/10 15:50:42;;;;;;;;;;;;;;;;;;5008195;28;19933;-78
2023/09/10 15:53:08;;;;;;;;;;;;;;;;;;4993224;28;20366;-79
2023/09/10 15:55:34;;;;;;;;;;;;;;;;;;5005147;28;19922;-79
2023/09/10 15:58:00;;;;;;;;;;;;;;;;;;5004166;28;19940;-81
2023/09/10 16:00:26;;;;;;;;;;;;;;;;;;4996654;28;19981;-81
2023/09/10 16:02:52;;;;;;;;;;;;;;;;;;4995142;28;20267;-81
2023/09/10 16:05:18;;;;;;;;;;;;;;;;;;5003546;28;19917;-80
2023/09/10 16:07:44;;;;;;;;;;;;;;;;;;5001053;28;19972;-80
2023/09/10 16:10:10;;;;;;;;;;;;;;;;;;4996574;28;19920;-80
2023/09/10 16:12:35;;;;;;;;;;;;;;;;;;4997036;28;19967;-80
2023/09/10 16:15:03;;;;;;;;;;;;;;;;;;4996001;28;20358;-80
2023/09/10 16:17:29;;;;;;;;;;;;;;;;;;5001506;28;19964;-80
2023/09/10 16:19:55;;;;;;;;;;;;;;;;;;4997015;28;20227;-80
2023/09/10 16:22:21;;;;;;;;;;;;;;;;;;4998920;28;20377;-81
2023/09/10 16:24:46;;;;;;;;;;;;;;;;;;4998554;28;19960;-81
2023/09/10 16:27:12;;;;;;;;;;;;;;;;;;4997622;28;19909;-81
2023/09/10 16:29:38;;;;;;;;;;;;;;;;;;4997484;28;19992;-81
2023/09/10 16:32:04;;;;;;;;;;;;;;;;;;4999568;28;19923;-81
2023/09/10 16:34:30;;;;;;;;;;;;;;;;;;4999529;28;19918;-81
2023/09/10 16:36:56;;;;;;;;;;;;;;;;;;4998322;28;19953;-82
2023/09/10 16:39:22;;;;;;;;;;;;;;;;;;4994362;28;19913;-81
2023/09/10 16:41:48;;;;;;;;;;;;;;;;;;4999798;28;19952;-81
2023/09/10 16:44:14;;;;;;;;;;;;;;;;;;5003164;28;19917;-81
2023/09/10 16:46:41;;;;;;;;;;;;;;;;;;5002682;28;20289;-82
2023/09/10 16:49:08;;;;;;;;;;;;;;;;;;5003146;28;20381;-79
2023/09/10 16:51:34;;;;;;;;;;;;;;;;;;5005533;28;20004;-79
2023/09/10 16:54:00;;;;;;;;;;;;;;;;;;5009738;28;19996;-79
2023/09/10 16:56:25;;;;;;;;;;;;;;;;;;4997167;28;19987;-80
2023/09/10 16:58:51;;;;;;;;;;;;;;;;;;4997863;28;19953;-79
2023/09/10 17:01:17;;;;;;;;;;;;;;;;;;4987017;28;20897;-80
2023/09/10 17:03:45;;;;;;;;;;;;;;;;;;4991597;28;19913;-79
2023/09/10 17:06:11;;;;;;;;;;;;;;;;;;5001664;28;19909;-80
2023/09/10 17:08:37;;;;;;;;;;;;;;;;;;4995177;28;19952;-81
2023/09/10 17:11:03;;;;;;;;;;;;;;;;;;4993405;28;20005;-80
2023/09/10 17:13:28;;;;;;;;;;;;;;;;;;5003792;28;19922;-80
2023/09/10 17:15:54;;;;;;;;;;;;;;;;;;4998784;28;19925;-80
2023/09/10 17:18:20;;;;;;;;;;;;;;;;;;4999733;28;19924;-81
2023/09/10 17:20:46;;;;;;;;;;;;;;;;;;4993845;28;19918;-80
2023/09/10 17:23:12;;;;;;;;;;;;;;;;;;4996969;28;19968;-80
2023/09/10 17:25:38;;;;;;;;;;;;;;;;;;4996949;28;20027;-81
2023/09/10 17:28:04;;;;;;;;;;;;;;;;;;4998927;28;19910;-81
2023/09/10 17:30:30;;;;;;;;;;;;;;;;;;5000093;28;20369;-81
2023/09/10 17:32:56;;;;;;;;;;;;;;;;;;5000181;28;19917;-81
2023/09/10 17:35:22;;;;;;;;;;;;;;;;;;5002487;28;20365;-81
2023/09/10 17:37:49;;;;;;;;;;;;;;;;;;4997777;28;20382;-81
2023/09/10 17:40:15;;;;;;;;;;;;;;;;;;4994244;28;19938;-82
2023/09/10 17:42:41;;;;;;;;;;;;;;;;;;4998067;28;20386;-81
2023/09/10 17:45:07;;;;;;;;;;;;;;;;;;5000526;28;19913;-82
2023/09/10 17:47:34;;;;;;;;;;;;;;;;;;4996239;28;19909;-80
2023/09/10 17:50:00;;;;;;;;;;;;;;;;;;4993612;28;19948;-80
2023/09/10 17:52:26;;;;;;;;;;;;;;;;;;4993361;28;19914;-79
2023/09/10 17:54:52;;;;;;;;;;;;;;;;;;5002366;28;20338;-80